Hauptseite
METAR-TAF:

METAR-TAF

Flughäfen :

Flughafen Brønnøysund

Brønnøysund, Norwegen

Breite: 65-28N, Länge: 012-13E, Höhe: 0 m

Beobachtung

Neuester Wetterbericht von vor 34 Minuten, um 17:20 UTC
Wind 2 kt aus unterschiedlichen Richtungen
Temperatur 19°C
Luftfeuchtigkeit 52%
Luftdruck 1018 hPa
Sichtweite 10 km oder mehr
keine Wolken unter 1500 m und keine Kumulonimbus oder Gewitterwolken

METAR: ENBN 231720Z VRB02KT CAVOK 19/09 Q1018

Zeit: 19:54 (17:54 UTC)

Prognose

Neuester Wetterbericht von vor 54 Minuten, um 17:00 UTC
Gültige Prognose vom 23 um 18 UTC bis 24 um 03 UTC
Wind 9 kt aus West/Südwest
Sichtweite 10 km oder mehr
keine Wolken unter 1500 m und keine Kumulonimbus oder Gewitterwolken

TAF: ENBN 231700Z 2318/2403 25009KT CAVOK

Wetterbeobachtungen und Prognosen von mehr als 4000 Flughäfen (METAR und TAF Bericht).

Die verfügbaren Stationen werden durch gelbe und rote Markierungen auf der Karte dargestellt.

Führen Sie die Maus auf sie, um den Namen der Station zu sehen.

Darauf klicken, um die Beobachtung von Wetterbeobachtungen und Prognosen zu sehen.

Um die Karte zu ändern : klicken Sie auf den grünen Tasten mit einem schwarzen Kreuz Zum Vergrößern, auf den grünen Button mit einem Gedankenstrich zu verkleinern, oder auf die grünen Pfeile für benachbarte Karten.


METAR-TAF: